sensor_id;sensor_type;location;lat;lon;timestamp;P1;durP1;ratioP1;P2;durP2;ratioP2
54125;SDS011;40360;52.992;6.796;2023-02-28T00:00:16;12.73;;;4.80;;
54125;SDS011;40360;52.992;6.796;2023-02-28T00:02:42;12.30;;;4.93;;
54125;SDS011;40360;52.992;6.796;2023-02-28T00:05:09;9.50;;;5.00;;
54125;SDS011;40360;52.992;6.796;2023-02-28T00:07:37;6.65;;;4.03;;
54125;SDS011;40360;52.992;6.796;2023-02-28T00:10:03;10.68;;;4.70;;
54125;SDS011;40360;52.992;6.796;2023-02-28T00:12:31;10.85;;;6.00;;
54125;SDS011;40360;52.992;6.796;2023-02-28T00:14:57;8.75;;;4.65;;
54125;SDS011;40360;52.992;6.796;2023-02-28T00:17:22;8.73;;;4.88;;
54125;SDS011;40360;52.992;6.796;2023-02-28T00:19:48;9.05;;;4.65;;
54125;SDS011;40360;52.992;6.796;2023-02-28T00:22:15;7.60;;;4.95;;
54125;SDS011;40360;52.992;6.796;2023-02-28T00:24:42;11.90;;;5.13;;
54125;SDS011;40360;52.992;6.796;2023-02-28T00:27:08;11.60;;;5.20;;
54125;SDS011;40360;52.992;6.796;2023-02-28T00:29:34;12.68;;;5.00;;
54125;SDS011;40360;52.992;6.796;2023-02-28T00:32:00;8.15;;;5.20;;
54125;SDS011;40360;52.992;6.796;2023-02-28T00:34:26;9.70;;;4.50;;
54125;SDS011;40360;52.992;6.796;2023-02-28T00:36:51;9.65;;;4.78;;
54125;SDS011;40360;52.992;6.796;2023-02-28T00:39:17;10.82;;;5.05;;
54125;SDS011;40360;52.992;6.796;2023-02-28T00:41:43;7.28;;;4.85;;
54125;SDS011;40360;52.992;6.796;2023-02-28T00:44:08;11.82;;;5.25;;
54125;SDS011;40360;52.992;6.796;2023-02-28T00:46:34;11.38;;;5.03;;
54125;SDS011;40360;52.992;6.796;2023-02-28T00:49:00;13.95;;;5.97;;
54125;SDS011;40360;52.992;6.796;2023-02-28T00:51:25;12.57;;;5.68;;
54125;SDS011;40360;52.992;6.796;2023-02-28T00:53:51;11.73;;;5.60;;
54125;SDS011;40360;52.992;6.796;2023-02-28T00:56:17;10.15;;;5.45;;
54125;SDS011;40360;52.992;6.796;2023-02-28T00:58:42;11.88;;;5.18;;
54125;SDS011;40360;52.992;6.796;2023-02-28T01:01:08;10.85;;;5.82;;
54125;SDS011;40360;52.992;6.796;2023-02-28T01:03:34;11.15;;;4.70;;
54125;SDS011;40360;52.992;6.796;2023-02-28T01:06:00;9.88;;;5.25;;
54125;SDS011;40360;52.992;6.796;2023-02-28T01:08:25;6.88;;;4.72;;
54125;SDS011;40360;52.992;6.796;2023-02-28T01:10:51;10.07;;;5.53;;
54125;SDS011;40360;52.992;6.796;2023-02-28T01:13:17;12.18;;;5.72;;
54125;SDS011;40360;52.992;6.796;2023-02-28T01:15:45;9.25;;;5.25;;
54125;SDS011;40360;52.992;6.796;2023-02-28T01:18:16;10.73;;;4.78;;
54125;SDS011;40360;52.992;6.796;2023-02-28T01:20:42;13.75;;;5.95;;
54125;SDS011;40360;52.992;6.796;2023-02-28T01:23:09;7.90;;;5.40;;
54125;SDS011;40360;52.992;6.796;2023-02-28T01:25:35;11.65;;;5.60;;
54125;SDS011;40360;52.992;6.796;2023-02-28T01:28:01;7.90;;;5.47;;
54125;SDS011;40360;52.992;6.796;2023-02-28T01:30:27;7.55;;;4.68;;
54125;SDS011;40360;52.992;6.796;2023-02-28T01:32:53;11.93;;;5.85;;
54125;SDS011;40360;52.992;6.796;2023-02-28T01:35:19;11.65;;;5.90;;
54125;SDS011;40360;52.992;6.796;2023-02-28T01:37:45;6.97;;;5.03;;
54125;SDS011;40360;52.992;6.796;2023-02-28T01:40:12;9.90;;;5.25;;
54125;SDS011;40360;52.992;6.796;2023-02-28T01:42:38;7.57;;;5.15;;
54125;SDS011;40360;52.992;6.796;2023-02-28T01:45:08;9.73;;;5.75;;
54125;SDS011;40360;52.992;6.796;2023-02-28T01:47:44;13.80;;;6.43;;
54125;SDS011;40360;52.992;6.796;2023-02-28T01:50:12;9.27;;;5.00;;
54125;SDS011;40360;52.992;6.796;2023-02-28T01:52:40;10.13;;;5.43;;
54125;SDS011;40360;52.992;6.796;2023-02-28T01:55:08;13.70;;;5.88;;
54125;SDS011;40360;52.992;6.796;2023-02-28T01:57:36;11.70;;;6.90;;
54125;SDS011;40360;52.992;6.796;2023-02-28T02:00:09;12.65;;;6.07;;
54125;SDS011;40360;52.992;6.796;2023-02-28T02:02:41;9.05;;;5.95;;
54125;SDS011;40360;52.992;6.796;2023-02-28T02:05:11;13.90;;;6.40;;
54125;SDS011;40360;52.992;6.796;2023-02-28T02:07:40;8.90;;;6.03;;
54125;SDS011;40360;52.992;6.796;2023-02-28T02:10:15;13.80;;;6.05;;
54125;SDS011;40360;52.992;6.796;2023-02-28T02:15:45;12.13;;;5.72;;
54125;SDS011;40360;52.992;6.796;2023-02-28T02:23:58;12.20;;;5.43;;
54125;SDS011;40360;52.992;6.796;2023-02-28T02:32:23;13.30;;;6.90;;
54125;SDS011;40360;52.992;6.796;2023-02-28T02:34:59;11.07;;;6.35;;
54125;SDS011;40360;52.992;6.796;2023-02-28T02:37:52;11.05;;;6.90;;
54125;SDS011;40360;52.992;6.796;2023-02-28T02:40:29;11.25;;;5.57;;
54125;SDS011;40360;52.992;6.796;2023-02-28T02:43:06;9.93;;;5.47;;
54125;SDS011;40360;52.992;6.796;2023-02-28T02:45:45;10.65;;;6.72;;
54125;SDS011;40360;52.992;6.796;2023-02-28T02:48:21;9.75;;;6.68;;
54125;SDS011;40360;52.992;6.796;2023-02-28T02:50:53;11.63;;;5.50;;
54125;SDS011;40360;52.992;6.796;2023-02-28T02:53:23;10.73;;;6.00;;
54125;SDS011;40360;52.992;6.796;2023-02-28T02:55:53;7.55;;;5.30;;
54125;SDS011;40360;52.992;6.796;2023-02-28T02:58:22;12.55;;;6.00;;
54125;SDS011;40360;52.992;6.796;2023-02-28T03:00:55;11.13;;;6.18;;
54125;SDS011;40360;52.992;6.796;2023-02-28T03:03:24;8.80;;;6.25;;
54125;SDS011;40360;52.992;6.796;2023-02-28T03:05:58;9.23;;;5.80;;
54125;SDS011;40360;52.992;6.796;2023-02-28T03:08:25;8.43;;;5.45;;
54125;SDS011;40360;52.992;6.796;2023-02-28T03:10:55;9.98;;;6.40;;
54125;SDS011;40360;52.992;6.796;2023-02-28T03:16:34;11.93;;;5.88;;
54125;SDS011;40360;52.992;6.796;2023-02-28T03:22:10;11.63;;;6.53;;
54125;SDS011;40360;52.992;6.796;2023-02-28T03:27:38;10.43;;;5.82;;
54125;SDS011;40360;52.992;6.796;2023-02-28T03:33:18;11.10;;;6.88;;
54125;SDS011;40360;52.992;6.796;2023-02-28T03:35:56;9.35;;;5.43;;
54125;SDS011;40360;52.992;6.796;2023-02-28T03:38:35;12.35;;;6.53;;
54125;SDS011;40360;52.992;6.796;2023-02-28T03:41:13;8.77;;;5.50;;
54125;SDS011;40360;52.992;6.796;2023-02-28T03:43:53;9.15;;;6.20;;
54125;SDS011;40360;52.992;6.796;2023-02-28T03:46:24;12.50;;;6.50;;
54125;SDS011;40360;52.992;6.796;2023-02-28T03:48:55;8.30;;;5.50;;
54125;SDS011;40360;52.992;6.796;2023-02-28T03:51:28;10.90;;;6.20;;
54125;SDS011;40360;52.992;6.796;2023-02-28T03:53:58;12.07;;;6.60;;
54125;SDS011;40360;52.992;6.796;2023-02-28T03:56:37;10.80;;;6.55;;
54125;SDS011;40360;52.992;6.796;2023-02-28T03:59:21;13.52;;;6.57;;
54125;SDS011;40360;52.992;6.796;2023-02-28T04:01:55;11.88;;;6.97;;
54125;SDS011;40360;52.992;6.796;2023-02-28T04:04:24;16.45;;;6.90;;
54125;SDS011;40360;52.992;6.796;2023-02-28T04:06:50;13.85;;;6.82;;
54125;SDS011;40360;52.992;6.796;2023-02-28T04:09:17;10.82;;;6.78;;
54125;SDS011;40360;52.992;6.796;2023-02-28T04:11:49;12.20;;;7.63;;
54125;SDS011;40360;52.992;6.796;2023-02-28T04:14:17;15.57;;;8.30;;
54125;SDS011;40360;52.992;6.796;2023-02-28T04:16:43;12.57;;;7.10;;
54125;SDS011;40360;52.992;6.796;2023-02-28T04:19:09;12.55;;;7.13;;
54125;SDS011;40360;52.992;6.796;2023-02-28T04:21:40;12.52;;;8.02;;
54125;SDS011;40360;52.992;6.796;2023-02-28T04:24:08;13.40;;;7.43;;
54125;SDS011;40360;52.992;6.796;2023-02-28T04:26:39;9.48;;;6.97;;
54125;SDS011;40360;52.992;6.796;2023-02-28T04:29:05;14.77;;;8.80;;
54125;SDS011;40360;52.992;6.796;2023-02-28T04:31:32;12.68;;;6.88;;
54125;SDS011;40360;52.992;6.796;2023-02-28T04:33:58;10.88;;;7.70;;
54125;SDS011;40360;52.992;6.796;2023-02-28T04:36:24;13.25;;;7.65;;
54125;SDS011;40360;52.992;6.796;2023-02-28T04:38:50;12.13;;;7.93;;
54125;SDS011;40360;52.992;6.796;2023-02-28T04:41:17;18.30;;;8.63;;
54125;SDS011;40360;52.992;6.796;2023-02-28T04:43:43;13.20;;;7.68;;
54125;SDS011;40360;52.992;6.796;2023-02-28T04:46:09;13.48;;;8.52;;
54125;SDS011;40360;52.992;6.796;2023-02-28T04:48:36;15.15;;;8.88;;
54125;SDS011;40360;52.992;6.796;2023-02-28T04:51:06;14.82;;;8.88;;
54125;SDS011;40360;52.992;6.796;2023-02-28T04:53:35;13.35;;;8.50;;
54125;SDS011;40360;52.992;6.796;2023-02-28T04:56:02;13.75;;;9.05;;
54125;SDS011;40360;52.992;6.796;2023-02-28T04:58:28;15.25;;;9.00;;
54125;SDS011;40360;52.992;6.796;2023-02-28T05:00:56;12.60;;;9.18;;
54125;SDS011;40360;52.992;6.796;2023-02-28T05:03:27;17.90;;;9.82;;
54125;SDS011;40360;52.992;6.796;2023-02-28T05:05:53;16.55;;;10.35;;
54125;SDS011;40360;52.992;6.796;2023-02-28T05:08:19;16.38;;;10.82;;
54125;SDS011;40360;52.992;6.796;2023-02-28T05:10:44;17.27;;;10.57;;
54125;SDS011;40360;52.992;6.796;2023-02-28T05:13:13;21.35;;;10.60;;
54125;SDS011;40360;52.992;6.796;2023-02-28T05:15:38;16.67;;;12.00;;
54125;SDS011;40360;52.992;6.796;2023-02-28T05:18:04;20.60;;;10.93;;
54125;SDS011;40360;52.992;6.796;2023-02-28T05:20:30;18.27;;;10.93;;
54125;SDS011;40360;52.992;6.796;2023-02-28T05:22:56;14.93;;;10.63;;
54125;SDS011;40360;52.992;6.796;2023-02-28T05:25:23;19.92;;;11.32;;
54125;SDS011;40360;52.992;6.796;2023-02-28T05:27:49;17.40;;;10.57;;
54125;SDS011;40360;52.992;6.796;2023-02-28T05:30:15;18.27;;;10.27;;
54125;SDS011;40360;52.992;6.796;2023-02-28T05:32:41;16.17;;;11.05;;
54125;SDS011;40360;52.992;6.796;2023-02-28T05:35:10;17.17;;;10.30;;
54125;SDS011;40360;52.992;6.796;2023-02-28T05:37:37;15.55;;;10.68;;
54125;SDS011;40360;52.992;6.796;2023-02-28T05:40:03;15.07;;;10.57;;
54125;SDS011;40360;52.992;6.796;2023-02-28T05:42:37;18.38;;;11.30;;
54125;SDS011;40360;52.992;6.796;2023-02-28T06:01:59;19.15;;;11.90;;
54125;SDS011;40360;52.992;6.796;2023-02-28T06:04:25;21.25;;;12.70;;
54125;SDS011;40360;52.992;6.796;2023-02-28T06:06:50;20.95;;;11.80;;
54125;SDS011;40360;52.992;6.796;2023-02-28T06:09:16;22.92;;;12.52;;
54125;SDS011;40360;52.992;6.796;2023-02-28T06:11:43;19.98;;;11.73;;
54125;SDS011;40360;52.992;6.796;2023-02-28T06:14:12;19.98;;;12.82;;
54125;SDS011;40360;52.992;6.796;2023-02-28T06:16:41;24.67;;;12.00;;
54125;SDS011;40360;52.992;6.796;2023-02-28T06:19:06;17.48;;;12.32;;
54125;SDS011;40360;52.992;6.796;2023-02-28T06:21:32;16.35;;;10.70;;
54125;SDS011;40360;52.992;6.796;2023-02-28T06:23:57;17.75;;;12.07;;
54125;SDS011;40360;52.992;6.796;2023-02-28T06:26:24;21.70;;;12.43;;
54125;SDS011;40360;52.992;6.796;2023-02-28T06:28:50;22.42;;;12.27;;
54125;SDS011;40360;52.992;6.796;2023-02-28T06:31:16;17.63;;;12.57;;
54125;SDS011;40360;52.992;6.796;2023-02-28T06:33:44;18.15;;;11.48;;
54125;SDS011;40360;52.992;6.796;2023-02-28T06:36:10;19.52;;;11.50;;
54125;SDS011;40360;52.992;6.796;2023-02-28T06:38:38;20.23;;;12.70;;
54125;SDS011;40360;52.992;6.796;2023-02-28T06:41:04;22.08;;;12.98;;
54125;SDS011;40360;52.992;6.796;2023-02-28T06:43:31;25.58;;;14.45;;
54125;SDS011;40360;52.992;6.796;2023-02-28T06:45:59;24.23;;;12.98;;
54125;SDS011;40360;52.992;6.796;2023-02-28T06:48:27;21.40;;;13.13;;
54125;SDS011;40360;52.992;6.796;2023-02-28T06:51:00;18.67;;;12.90;;
54125;SDS011;40360;52.992;6.796;2023-02-28T06:53:38;18.85;;;11.73;;
54125;SDS011;40360;52.992;6.796;2023-02-28T06:56:07;19.27;;;13.13;;
54125;SDS011;40360;52.992;6.796;2023-02-28T06:58:35;24.20;;;13.65;;
54125;SDS011;40360;52.992;6.796;2023-02-28T07:01:02;22.60;;;13.40;;
54125;SDS011;40360;52.992;6.796;2023-02-28T07:03:28;19.42;;;12.15;;
54125;SDS011;40360;52.992;6.796;2023-02-28T07:05:54;23.40;;;13.68;;
54125;SDS011;40360;52.992;6.796;2023-02-28T07:08:21;21.02;;;12.57;;
54125;SDS011;40360;52.992;6.796;2023-02-28T07:10:51;18.65;;;12.75;;
54125;SDS011;40360;52.992;6.796;2023-02-28T07:13:17;23.40;;;13.68;;
54125;SDS011;40360;52.992;6.796;2023-02-28T07:15:43;23.42;;;13.15;;
54125;SDS011;40360;52.992;6.796;2023-02-28T07:18:08;25.98;;;13.05;;
54125;SDS011;40360;52.992;6.796;2023-02-28T07:20:34;22.02;;;13.90;;
54125;SDS011;40360;52.992;6.796;2023-02-28T07:23:00;19.80;;;13.63;;
54125;SDS011;40360;52.992;6.796;2023-02-28T07:25:26;18.00;;;12.55;;
54125;SDS011;40360;52.992;6.796;2023-02-28T07:27:53;21.27;;;13.57;;
54125;SDS011;40360;52.992;6.796;2023-02-28T07:30:20;21.85;;;12.65;;
54125;SDS011;40360;52.992;6.796;2023-02-28T07:32:45;20.00;;;12.98;;
54125;SDS011;40360;52.992;6.796;2023-02-28T07:35:11;19.13;;;12.48;;
54125;SDS011;40360;52.992;6.796;2023-02-28T07:37:37;17.65;;;13.27;;
54125;SDS011;40360;52.992;6.796;2023-02-28T07:40:03;24.20;;;13.73;;
54125;SDS011;40360;52.992;6.796;2023-02-28T07:42:33;26.25;;;12.93;;
54125;SDS011;40360;52.992;6.796;2023-02-28T07:44:59;17.67;;;12.18;;
54125;SDS011;40360;52.992;6.796;2023-02-28T07:47:25;18.80;;;11.68;;
54125;SDS011;40360;52.992;6.796;2023-02-28T07:49:51;22.15;;;13.27;;
54125;SDS011;40360;52.992;6.796;2023-02-28T07:52:17;17.08;;;11.88;;
54125;SDS011;40360;52.992;6.796;2023-02-28T07:54:42;21.60;;;13.07;;
54125;SDS011;40360;52.992;6.796;2023-02-28T07:57:08;17.40;;;11.65;;
54125;SDS011;40360;52.992;6.796;2023-02-28T07:59:33;21.92;;;14.07;;
54125;SDS011;40360;52.992;6.796;2023-02-28T08:01:59;17.40;;;12.50;;
54125;SDS011;40360;52.992;6.796;2023-02-28T08:04:25;24.00;;;11.70;;
54125;SDS011;40360;52.992;6.796;2023-02-28T08:06:51;20.83;;;13.38;;
54125;SDS011;40360;52.992;6.796;2023-02-28T08:09:21;18.40;;;12.93;;
54125;SDS011;40360;52.992;6.796;2023-02-28T08:11:46;18.98;;;11.55;;
54125;SDS011;40360;52.992;6.796;2023-02-28T08:14:12;24.65;;;13.88;;
54125;SDS011;40360;52.992;6.796;2023-02-28T08:16:38;25.17;;;12.70;;
54125;SDS011;40360;52.992;6.796;2023-02-28T08:19:04;21.88;;;13.13;;
54125;SDS011;40360;52.992;6.796;2023-02-28T08:21:29;23.70;;;14.52;;
54125;SDS011;40360;52.992;6.796;2023-02-28T08:23:55;23.70;;;13.30;;
54125;SDS011;40360;52.992;6.796;2023-02-28T08:26:21;19.45;;;13.60;;
54125;SDS011;40360;52.992;6.796;2023-02-28T08:28:47;22.60;;;13.40;;
54125;SDS011;40360;52.992;6.796;2023-02-28T08:31:14;20.38;;;12.75;;
54125;SDS011;40360;52.992;6.796;2023-02-28T08:33:41;20.92;;;13.68;;
54125;SDS011;40360;52.992;6.796;2023-02-28T08:36:08;26.60;;;14.65;;
54125;SDS011;40360;52.992;6.796;2023-02-28T08:38:34;21.73;;;14.43;;
54125;SDS011;40360;52.992;6.796;2023-02-28T08:41:01;20.15;;;13.77;;
54125;SDS011;40360;52.992;6.796;2023-02-28T08:43:30;21.25;;;13.40;;
54125;SDS011;40360;52.992;6.796;2023-02-28T08:45:56;19.70;;;13.93;;
54125;SDS011;40360;52.992;6.796;2023-02-28T08:48:28;24.38;;;14.43;;
54125;SDS011;40360;52.992;6.796;2023-02-28T08:53:25;18.77;;;13.18;;
54125;SDS011;40360;52.992;6.796;2023-02-28T08:58:23;24.70;;;13.32;;
54125;SDS011;40360;52.992;6.796;2023-02-28T09:00:49;17.98;;;12.43;;
54125;SDS011;40360;52.992;6.796;2023-02-28T09:03:15;17.08;;;12.50;;
54125;SDS011;40360;52.992;6.796;2023-02-28T09:05:51;21.50;;;12.85;;
54125;SDS011;40360;52.992;6.796;2023-02-28T09:08:20;16.42;;;11.73;;
54125;SDS011;40360;52.992;6.796;2023-02-28T09:10:46;19.02;;;11.90;;
54125;SDS011;40360;52.992;6.796;2023-02-28T09:13:12;17.13;;;12.95;;
54125;SDS011;40360;52.992;6.796;2023-02-28T09:15:37;20.80;;;12.02;;
54125;SDS011;40360;52.992;6.796;2023-02-28T09:18:03;16.20;;;12.02;;
54125;SDS011;40360;52.992;6.796;2023-02-28T09:20:29;19.95;;;12.73;;
54125;SDS011;40360;52.992;6.796;2023-02-28T09:22:55;16.05;;;11.55;;
54125;SDS011;40360;52.992;6.796;2023-02-28T09:25:20;17.65;;;11.52;;
54125;SDS011;40360;52.992;6.796;2023-02-28T09:27:46;24.52;;;13.02;;
54125;SDS011;40360;52.992;6.796;2023-02-28T09:30:12;15.45;;;10.65;;
54125;SDS011;40360;52.992;6.796;2023-02-28T09:32:38;15.15;;;11.70;;
54125;SDS011;40360;52.992;6.796;2023-02-28T09:35:04;17.35;;;12.00;;
54125;SDS011;40360;52.992;6.796;2023-02-28T09:37:30;15.18;;;11.77;;
54125;SDS011;40360;52.992;6.796;2023-02-28T09:39:56;16.70;;;10.63;;
54125;SDS011;40360;52.992;6.796;2023-02-28T09:42:25;15.85;;;11.57;;
54125;SDS011;40360;52.992;6.796;2023-02-28T09:47:27;13.98;;;10.82;;
54125;SDS011;40360;52.992;6.796;2023-02-28T09:52:48;15.18;;;10.55;;
54125;SDS011;40360;52.992;6.796;2023-02-28T09:55:36;13.95;;;11.15;;
54125;SDS011;40360;52.992;6.796;2023-02-28T09:58:11;15.95;;;10.23;;
54125;SDS011;40360;52.992;6.796;2023-02-28T10:01:03;16.33;;;10.88;;
54125;SDS011;40360;52.992;6.796;2023-02-28T10:03:56;13.38;;;10.18;;
54125;SDS011;40360;52.992;6.796;2023-02-28T10:06:27;13.18;;;10.05;;
54125;SDS011;40360;52.992;6.796;2023-02-28T10:09:06;11.48;;;8.85;;
54125;SDS011;40360;52.992;6.796;2023-02-28T10:11:38;14.35;;;9.18;;
54125;SDS011;40360;52.992;6.796;2023-02-28T10:14:10;13.73;;;9.18;;
54125;SDS011;40360;52.992;6.796;2023-02-28T10:17:07;13.80;;;9.80;;
54125;SDS011;40360;52.992;6.796;2023-02-28T10:19:39;17.17;;;8.55;;
54125;SDS011;40360;52.992;6.796;2023-02-28T10:22:38;9.57;;;7.45;;
54125;SDS011;40360;52.992;6.796;2023-02-28T10:25:27;8.90;;;5.95;;
54125;SDS011;40360;52.992;6.796;2023-02-28T10:28:16;10.98;;;6.90;;
54125;SDS011;40360;52.992;6.796;2023-02-28T10:30:51;8.52;;;6.00;;
54125;SDS011;40360;52.992;6.796;2023-02-28T10:33:25;7.03;;;5.72;;
54125;SDS011;40360;52.992;6.796;2023-02-28T10:35:59;7.95;;;5.13;;
54125;SDS011;40360;52.992;6.796;2023-02-28T10:38:27;7.28;;;5.45;;
54125;SDS011;40360;52.992;6.796;2023-02-28T10:41:18;17.67;;;8.15;;
54125;SDS011;40360;52.992;6.796;2023-02-28T10:44:20;9.95;;;7.75;;
54125;SDS011;40360;52.992;6.796;2023-02-28T10:46:47;9.52;;;6.97;;
54125;SDS011;40360;52.992;6.796;2023-02-28T10:49:21;8.27;;;6.53;;
54125;SDS011;40360;52.992;6.796;2023-02-28T10:51:49;6.85;;;4.93;;
54125;SDS011;40360;52.992;6.796;2023-02-28T10:54:22;6.55;;;5.40;;
54125;SDS011;40360;52.992;6.796;2023-02-28T10:57:19;6.88;;;5.20;;
54125;SDS011;40360;52.992;6.796;2023-02-28T10:59:50;8.18;;;5.28;;
54125;SDS011;40360;52.992;6.796;2023-02-28T11:02:34;7.03;;;5.18;;
54125;SDS011;40360;52.992;6.796;2023-02-28T11:05:01;7.75;;;5.25;;
54125;SDS011;40360;52.992;6.796;2023-02-28T11:07:27;5.78;;;4.68;;
54125;SDS011;40360;52.992;6.796;2023-02-28T11:09:54;7.03;;;4.57;;
54125;SDS011;40360;52.992;6.796;2023-02-28T11:12:36;7.05;;;4.50;;
54125;SDS011;40360;52.992;6.796;2023-02-28T11:15:05;5.95;;;4.80;;
54125;SDS011;40360;52.992;6.796;2023-02-28T11:17:53;8.40;;;5.75;;
54125;SDS011;40360;52.992;6.796;2023-02-28T11:20:26;5.97;;;4.70;;
54125;SDS011;40360;52.992;6.796;2023-02-28T11:22:55;5.82;;;4.35;;
54125;SDS011;40360;52.992;6.796;2023-02-28T11:25:33;6.80;;;4.30;;
54125;SDS011;40360;52.992;6.796;2023-02-28T11:28:06;5.32;;;4.45;;
54125;SDS011;40360;52.992;6.796;2023-02-28T11:31:15;7.13;;;4.32;;
54125;SDS011;40360;52.992;6.796;2023-02-28T11:33:45;10.45;;;5.13;;
54125;SDS011;40360;52.992;6.796;2023-02-28T11:38:51;6.85;;;5.10;;
54125;SDS011;40360;52.992;6.796;2023-02-28T11:53:10;9.15;;;6.13;;
54125;SDS011;40360;52.992;6.796;2023-02-28T11:55:51;7.90;;;5.88;;
54125;SDS011;40360;52.992;6.796;2023-02-28T11:58:30;6.63;;;5.18;;
54125;SDS011;40360;52.992;6.796;2023-02-28T12:12:46;7.90;;;6.45;;
54125;SDS011;40360;52.992;6.796;2023-02-28T12:15:37;9.00;;;6.78;;
54125;SDS011;40360;52.992;6.796;2023-02-28T12:28:45;8.65;;;6.07;;
54125;SDS011;40360;52.992;6.796;2023-02-28T12:31:17;9.32;;;6.53;;
54125;SDS011;40360;52.992;6.796;2023-02-28T12:33:45;8.85;;;5.63;;
54125;SDS011;40360;52.992;6.796;2023-02-28T12:36:16;8.77;;;5.55;;
54125;SDS011;40360;52.992;6.796;2023-02-28T12:39:00;8.57;;;5.30;;
54125;SDS011;40360;52.992;6.796;2023-02-28T12:41:52;8.05;;;5.28;;
54125;SDS011;40360;52.992;6.796;2023-02-28T12:44:35;6.25;;;4.90;;
54125;SDS011;40360;52.992;6.796;2023-02-28T12:47:22;8.93;;;5.97;;
54125;SDS011;40360;52.992;6.796;2023-02-28T12:49:49;7.28;;;5.47;;
54125;SDS011;40360;52.992;6.796;2023-02-28T12:52:31;9.40;;;6.07;;
54125;SDS011;40360;52.992;6.796;2023-02-28T12:57:52;9.05;;;5.65;;
54125;SDS011;40360;52.992;6.796;2023-02-28T13:00:22;10.65;;;5.53;;
54125;SDS011;40360;52.992;6.796;2023-02-28T13:03:00;11.80;;;5.22;;
54125;SDS011;40360;52.992;6.796;2023-02-28T13:08:48;6.18;;;5.10;;
54125;SDS011;40360;52.992;6.796;2023-02-28T13:11:23;6.18;;;4.95;;
54125;SDS011;40360;52.992;6.796;2023-02-28T13:13:58;7.93;;;5.97;;
54125;SDS011;40360;52.992;6.796;2023-02-28T13:16:48;8.55;;;6.18;;
54125;SDS011;40360;52.992;6.796;2023-02-28T13:19:16;5.47;;;4.95;;
54125;SDS011;40360;52.992;6.796;2023-02-28T13:21:44;8.80;;;4.85;;
54125;SDS011;40360;52.992;6.796;2023-02-28T13:24:11;7.72;;;6.00;;
54125;SDS011;40360;52.992;6.796;2023-02-28T13:27:42;7.47;;;5.43;;
54125;SDS011;40360;52.992;6.796;2023-02-28T13:29:43;8.10;;;5.38;;
54125;SDS011;40360;52.992;6.796;2023-02-28T13:34:35;6.32;;;3.90;;
54125;SDS011;40360;52.992;6.796;2023-02-28T13:39:51;6.63;;;4.90;;
54125;SDS011;40360;52.992;6.796;2023-02-28T13:50:15;11.20;;;4.90;;
54125;SDS011;40360;52.992;6.796;2023-02-28T13:53:25;6.20;;;4.80;;
54125;SDS011;40360;52.992;6.796;2023-02-28T13:59:32;8.38;;;4.30;;
54125;SDS011;40360;52.992;6.796;2023-02-28T14:07:21;8.27;;;4.63;;
54125;SDS011;40360;52.992;6.796;2023-02-28T14:10:01;7.18;;;4.50;;
54125;SDS011;40360;52.992;6.796;2023-02-28T14:18:05;6.03;;;4.38;;
54125;SDS011;40360;52.992;6.796;2023-02-28T14:20:57;5.35;;;3.80;;
54125;SDS011;40360;52.992;6.796;2023-02-28T14:26:44;5.00;;;4.32;;
54125;SDS011;40360;52.992;6.796;2023-02-28T14:34:36;6.45;;;4.60;;
54125;SDS011;40360;52.992;6.796;2023-02-28T14:37:16;6.75;;;4.45;;
54125;SDS011;40360;52.992;6.796;2023-02-28T14:39:50;5.90;;;4.55;;
54125;SDS011;40360;52.992;6.796;2023-02-28T14:42:32;5.07;;;3.85;;
54125;SDS011;40360;52.992;6.796;2023-02-28T14:45:00;4.95;;;4.00;;
54125;SDS011;40360;52.992;6.796;2023-02-28T14:47:28;6.88;;;4.18;;
54125;SDS011;40360;52.992;6.796;2023-02-28T14:49:59;5.63;;;4.35;;
54125;SDS011;40360;52.992;6.796;2023-02-28T14:52:27;5.85;;;4.57;;
54125;SDS011;40360;52.992;6.796;2023-02-28T14:55:03;8.70;;;4.95;;
54125;SDS011;40360;52.992;6.796;2023-02-28T14:57:39;7.10;;;4.40;;
54125;SDS011;40360;52.992;6.796;2023-02-28T15:02:48;6.47;;;5.13;;
54125;SDS011;40360;52.992;6.796;2023-02-28T15:07:43;5.97;;;4.75;;
54125;SDS011;40360;52.992;6.796;2023-02-28T15:10:11;7.97;;;5.00;;
54125;SDS011;40360;52.992;6.796;2023-02-28T15:12:48;8.05;;;4.70;;
54125;SDS011;40360;52.992;6.796;2023-02-28T15:15:18;7.75;;;4.72;;
54125;SDS011;40360;52.992;6.796;2023-02-28T15:17:46;5.32;;;4.60;;
54125;SDS011;40360;52.992;6.796;2023-02-28T15:20:18;6.85;;;5.00;;
54125;SDS011;40360;52.992;6.796;2023-02-28T15:22:45;6.90;;;4.63;;
54125;SDS011;40360;52.992;6.796;2023-02-28T15:25:13;6.88;;;4.88;;
54125;SDS011;40360;52.992;6.796;2023-02-28T15:27:45;7.85;;;5.28;;
54125;SDS011;40360;52.992;6.796;2023-02-28T15:30:15;6.15;;;4.75;;
54125;SDS011;40360;52.992;6.796;2023-02-28T15:33:01;7.88;;;4.97;;
54125;SDS011;40360;52.992;6.796;2023-02-28T15:35:48;5.85;;;4.50;;
54125;SDS011;40360;52.992;6.796;2023-02-28T15:38:16;6.07;;;4.70;;
54125;SDS011;40360;52.992;6.796;2023-02-28T15:40:51;5.88;;;4.57;;
54125;SDS011;40360;52.992;6.796;2023-02-28T15:46:03;7.28;;;5.10;;
54125;SDS011;40360;52.992;6.796;2023-02-28T15:48:32;9.48;;;5.20;;
54125;SDS011;40360;52.992;6.796;2023-02-28T15:53:35;7.25;;;5.50;;
54125;SDS011;40360;52.992;6.796;2023-02-28T15:56:05;8.65;;;5.55;;
54125;SDS011;40360;52.992;6.796;2023-02-28T15:58:42;10.60;;;5.90;;
54125;SDS011;40360;52.992;6.796;2023-02-28T16:01:24;8.00;;;5.60;;
54125;SDS011;40360;52.992;6.796;2023-02-28T16:03:51;7.65;;;5.97;;
54125;SDS011;40360;52.992;6.796;2023-02-28T16:08:57;9.32;;;6.97;;
54125;SDS011;40360;52.992;6.796;2023-02-28T16:11:23;8.02;;;5.30;;
54125;SDS011;40360;52.992;6.796;2023-02-28T16:13:49;9.07;;;5.68;;
54125;SDS011;40360;52.992;6.796;2023-02-28T16:16:20;7.35;;;4.90;;
54125;SDS011;40360;52.992;6.796;2023-02-28T16:18:49;6.10;;;4.90;;
54125;SDS011;40360;52.992;6.796;2023-02-28T16:21:16;9.32;;;5.85;;
54125;SDS011;40360;52.992;6.796;2023-02-28T16:23:41;7.15;;;5.20;;
54125;SDS011;40360;52.992;6.796;2023-02-28T16:26:07;8.05;;;5.03;;
54125;SDS011;40360;52.992;6.796;2023-02-28T16:28:40;8.50;;;5.50;;
54125;SDS011;40360;52.992;6.796;2023-02-28T16:31:06;6.18;;;4.43;;
54125;SDS011;40360;52.992;6.796;2023-02-28T16:33:32;6.47;;;5.07;;
54125;SDS011;40360;52.992;6.796;2023-02-28T16:35:59;6.20;;;4.57;;
54125;SDS011;40360;52.992;6.796;2023-02-28T16:38:25;6.53;;;4.53;;
54125;SDS011;40360;52.992;6.796;2023-02-28T16:40:51;6.22;;;4.55;;
54125;SDS011;40360;52.992;6.796;2023-02-28T16:43:22;6.10;;;4.90;;
54125;SDS011;40360;52.992;6.796;2023-02-28T16:45:52;5.70;;;5.10;;
54125;SDS011;40360;52.992;6.796;2023-02-28T16:48:23;9.00;;;5.85;;
54125;SDS011;40360;52.992;6.796;2023-02-28T16:50:50;10.00;;;6.28;;
54125;SDS011;40360;52.992;6.796;2023-02-28T16:53:16;9.90;;;6.70;;
54125;SDS011;40360;52.992;6.796;2023-02-28T16:55:41;8.73;;;6.47;;
54125;SDS011;40360;52.992;6.796;2023-02-28T16:58:10;7.85;;;6.35;;
54125;SDS011;40360;52.992;6.796;2023-02-28T17:00:40;13.20;;;7.47;;
54125;SDS011;40360;52.992;6.796;2023-02-28T17:03:09;9.27;;;7.85;;
54125;SDS011;40360;52.992;6.796;2023-02-28T17:05:50;8.60;;;7.50;;
54125;SDS011;40360;52.992;6.796;2023-02-28T17:08:16;9.70;;;7.70;;
54125;SDS011;40360;52.992;6.796;2023-02-28T17:10:42;9.93;;;7.50;;
54125;SDS011;40360;52.992;6.796;2023-02-28T17:13:07;10.82;;;7.70;;
54125;SDS011;40360;52.992;6.796;2023-02-28T17:15:34;9.80;;;8.18;;
54125;SDS011;40360;52.992;6.796;2023-02-28T17:18:01;10.57;;;7.47;;
54125;SDS011;40360;52.992;6.796;2023-02-28T17:20:27;10.65;;;8.65;;